Time;durP1;ratioP1;P1;durP2;ratioP2;P2;SDS_P1;SDS_P2;PMS_P1;PMS_P2;Temp;Humidity;BMP_temperature;BMP_pressure;BME280_temperature;BME280_humidity;BME280_pressure;Samples;Min_cycle;Max_cycle;Signal;HPM_P1;HPM_P2
2023/09/11 00:01:32;;;;;;;;;;;;;;;21.04;28.16;98271.41;5007095;28;966;-76
2023/09/11 00:03:58;;;;;;;;;;;;;;;21.27;27.84;98279.00;5017813;28;938;-76
2023/09/11 00:06:25;;;;;;;;;;;;;;;21.28;27.89;98269.28;5017513;28;1010;-76
2023/09/11 00:08:50;;;;;;;;;;;;;;;21.16;28.16;98272.78;5001159;28;921;-77
2023/09/11 00:11:16;;;;;;;;;;;;;;;21.18;28.02;98267.47;5030886;28;1260;-77
2023/09/11 00:13:41;;;;;;;;;;;;;;;21.13;28.23;98263.09;5044220;28;1333;-76
2023/09/11 00:16:07;;;;;;;;;;;;;;;20.98;28.29;98273.13;5076973;28;1799;-77
2023/09/11 00:18:32;;;;;;;;;;;;;;;21.12;28.00;98272.03;5076959;28;1909;-77
2023/09/11 00:20:58;;;;;;;;;;;;;;;21.05;28.37;98273.00;5054524;28;1530;-77
2023/09/11 00:23:23;;;;;;;;;;;;;;;21.10;28.07;98269.66;5023749;28;999;-77
2023/09/11 00:25:49;;;;;;;;;;;;;;;21.16;27.94;98272.78;5057271;28;1080;-77
2023/09/11 00:28:14;;;;;;;;;;;;;;;21.06;28.17;98261.22;5056950;28;912;-77
2023/09/11 00:30:40;;;;;;;;;;;;;;;21.10;28.05;98264.00;5057253;28;873;-76
2023/09/11 00:33:05;;;;;;;;;;;;;;;20.86;28.73;98270.94;5040147;28;1209;-76
2023/09/11 00:35:31;;;;;;;;;;;;;;;20.98;28.12;98267.44;5061961;28;1340;-77
2023/09/11 00:37:56;;;;;;;;;;;;;;;20.91;28.38;98268.41;5060288;28;1962;-77
2023/09/11 00:40:22;;;;;;;;;;;;;;;21.12;27.83;98261.50;5057809;28;911;-77
2023/09/11 00:42:47;;;;;;;;;;;;;;;20.98;28.40;98264.63;5058164;28;1441;-77
2023/09/11 00:45:13;;;;;;;;;;;;;;;21.17;27.82;98263.84;5056653;28;1166;-76
2023/09/11 00:47:39;;;;;;;;;;;;;;;21.09;27.97;98262.41;5023704;28;926;-77
2023/09/11 00:50:05;;;;;;;;;;;;;;;21.12;27.94;98264.34;5022852;28;1358;-76
2023/09/11 00:52:30;;;;;;;;;;;;;;;21.24;27.86;98258.03;5040005;28;1016;-77
2023/09/11 00:54:56;;;;;;;;;;;;;;;21.27;27.74;98259.19;5056500;28;1145;-77
2023/09/11 00:57:22;;;;;;;;;;;;;;;21.38;27.54;98261.81;5007258;28;1914;-77
2023/09/11 00:59:48;;;;;;;;;;;;;;;20.77;28.72;98252.50;4999987;28;1109;-77
2023/09/11 01:02:14;;;;;;;;;;;;;;;20.94;28.54;98266.75;5000477;28;1142;-76
2023/09/11 01:04:40;;;;;;;;;;;;;;;20.90;28.70;98260.34;5000013;28;1370;-77
2023/09/11 01:07:05;;;;;;;;;;;;;;;21.04;28.25;98257.25;5000673;28;1362;-77
2023/09/11 01:09:32;;;;;;;;;;;;;;;21.23;27.92;98259.25;5016213;28;907;-77
2023/09/11 01:11:57;;;;;;;;;;;;;;;21.27;28.12;98245.84;5016106;28;1085;-77
2023/09/11 01:14:23;;;;;;;;;;;;;;;21.05;28.11;98251.16;5016827;28;931;-76
2023/09/11 01:17:07;;;;;;;;;;;;;;;21.11;28.27;98253.47;4985664;28;1907;-76
2023/09/11 01:19:44;;;;;;;;;;;;;;;21.13;28.35;98251.78;4996796;28;1505;-77
2023/09/11 01:22:25;;;;;;;;;;;;;;;21.14;28.29;98246.91;4980548;28;864;-77
2023/09/11 01:24:53;;;;;;;;;;;;;;;20.81;28.75;98247.56;4980381;28;889;-77
2023/09/11 01:27:37;;;;;;;;;;;;;;;20.91;28.65;98248.59;4996932;28;968;-77
2023/09/11 01:30:02;;;;;;;;;;;;;;;20.90;28.39;98254.69;5012314;28;1251;-76
2023/09/11 01:32:28;;;;;;;;;;;;;;;20.94;28.56;98244.91;5035475;28;946;-76
2023/09/11 01:34:53;;;;;;;;;;;;;;;20.97;28.20;98246.06;5019187;28;1597;-77
2023/09/11 01:37:19;;;;;;;;;;;;;;;21.04;28.12;98249.56;5019425;28;1918;-77
2023/09/11 01:39:44;;;;;;;;;;;;;;;20.92;28.39;98249.41;5020000;28;867;-77
2023/09/11 01:42:11;;;;;;;;;;;;;;;21.04;28.03;98240.28;5037123;28;1118;-76
2023/09/11 01:44:41;;;;;;;;;;;;;;;21.00;28.25;98242.38;5036774;28;1244;-77
2023/09/11 01:47:07;;;;;;;;;;;;;;;21.12;27.96;98238.09;5036721;28;1143;-77
2023/09/11 01:49:32;;;;;;;;;;;;;;;21.37;27.38;98240.41;5047421;28;1336;-76
2023/09/11 01:51:58;;;;;;;;;;;;;;;21.05;27.92;98253.19;5039717;28;1488;-77
2023/09/11 01:54:24;;;;;;;;;;;;;;;21.07;27.89;98247.88;5056574;28;968;-77
2023/09/11 01:56:49;;;;;;;;;;;;;;;21.12;28.00;98243.75;5040172;28;1914;-77
2023/09/11 01:59:15;;;;;;;;;;;;;;;20.98;28.18;98244.81;5056251;28;1213;-77
2023/09/11 02:01:41;;;;;;;;;;;;;;;21.14;27.90;98244.09;5040249;28;1142;-77
2023/09/11 02:04:07;;;;;;;;;;;;;;;20.92;28.35;98240.91;5039672;28;1230;-77
2023/09/11 02:06:32;;;;;;;;;;;;;;;21.10;27.90;98232.88;5034945;28;1691;-76
2023/09/11 02:08:58;;;;;;;;;;;;;;;20.94;28.31;98233.59;5002386;28;1241;-78
2023/09/11 02:11:23;;;;;;;;;;;;;;;20.99;28.26;98237.97;5002374;28;1125;-77
2023/09/11 02:13:49;;;;;;;;;;;;;;;21.11;27.90;98237.28;5002425;28;1202;-77
2023/09/11 02:16:14;;;;;;;;;;;;;;;20.76;28.50;98239.59;5019088;28;1115;-79
2023/09/11 02:18:40;;;;;;;;;;;;;;;20.76;28.49;98239.59;5018679;28;1918;-79
2023/09/11 02:21:06;;;;;;;;;;;;;;;20.70;28.74;98230.03;5001754;28;1649;-79
2023/09/11 02:23:31;;;;;;;;;;;;;;;20.87;28.26;98239.38;5035418;28;978;-79
2023/09/11 02:25:57;;;;;;;;;;;;;;;20.99;28.25;98235.94;5034860;28;1232;-79
2023/09/11 02:28:22;;;;;;;;;;;;;;;21.06;28.05;98229.31;5002156;28;1138;-78
2023/09/11 02:30:48;;;;;;;;;;;;;;;20.96;28.02;98241.66;4998920;28;1168;-79
2023/09/11 02:33:14;;;;;;;;;;;;;;;20.72;28.51;98235.22;4998724;28;968;-79
2023/09/11 02:35:39;;;;;;;;;;;;;;;20.63;28.94;98229.38;5014943;28;1596;-78
2023/09/11 02:38:05;;;;;;;;;;;;;;;21.02;28.20;98234.25;5010086;28;1910;-79
2023/09/11 02:40:31;;;;;;;;;;;;;;;21.29;27.79;98226.38;5015072;28;965;-79
2023/09/11 02:42:56;;;;;;;;;;;;;;;21.03;28.24;98225.31;5015144;28;947;-79
2023/09/11 02:45:22;;;;;;;;;;;;;;;20.89;28.29;98236.13;5005763;28;1294;-79
2023/09/11 02:47:47;;;;;;;;;;;;;;;20.78;28.42;98227.88;4977888;28;1440;-79
2023/09/11 02:50:13;;;;;;;;;;;;;;;21.16;27.87;98228.28;4991969;28;1397;-79
2023/09/11 02:52:38;;;;;;;;;;;;;;;20.89;28.46;98224.81;4976293;28;1287;-79
2023/09/11 02:55:04;;;;;;;;;;;;;;;20.72;28.52;98221.91;4976222;28;1085;-79
2023/09/11 02:57:29;;;;;;;;;;;;;;;21.11;28.27;98219.53;4975729;28;1985;-79
2023/09/11 02:59:55;;;;;;;;;;;;;;;20.79;28.78;98226.63;4956342;28;1163;-79
2023/09/11 03:02:21;;;;;;;;;;;;;;;20.70;28.81;98224.38;4970753;28;972;-79
2023/09/11 03:04:50;;;;;;;;;;;;;;;21.01;28.49;98221.34;4975592;28;1176;-79
2023/09/11 03:07:17;;;;;;;;;;;;;;;21.07;28.35;98222.41;4959158;28;1676;-79
2023/09/11 03:09:46;;;;;;;;;;;;;;;21.16;28.20;98222.63;4974388;28;1479;-79
2023/09/11 03:12:11;;;;;;;;;;;;;;;21.11;28.01;98220.31;4995329;28;1046;-79
2023/09/11 03:14:37;;;;;;;;;;;;;;;20.94;28.23;98230.78;5028496;28;1417;-79
2023/09/11 03:17:02;;;;;;;;;;;;;;;20.85;28.40;98229.75;5034651;28;1906;-79
2023/09/11 03:19:28;;;;;;;;;;;;;;;20.57;28.95;98226.22;5017815;28;1096;-79
2023/09/11 03:21:54;;;;;;;;;;;;;;;20.79;28.70;98230.25;5001703;28;1079;-79
2023/09/11 03:24:20;;;;;;;;;;;;;;;20.65;28.76;98221.25;4989765;28;1429;-79
2023/09/11 03:26:48;;;;;;;;;;;;;;;21.03;28.33;98230.16;4998332;28;1130;-79
2023/09/11 03:29:14;;;;;;;;;;;;;;;20.96;28.27;98227.50;5014525;28;1290;-79
2023/09/11 03:31:39;;;;;;;;;;;;;;;20.95;28.55;98240.06;5007375;28;958;-79
2023/09/11 03:34:05;;;;;;;;;;;;;;;20.83;28.32;98237.84;5014345;28;981;-79
2023/09/11 03:36:30;;;;;;;;;;;;;;;20.66;28.60;98240.59;4998055;28;1918;-79
2023/09/11 03:38:56;;;;;;;;;;;;;;;20.73;28.45;98229.16;4994192;28;1559;-79
2023/09/11 03:41:21;;;;;;;;;;;;;;;20.98;28.09;98245.63;4972633;28;1158;-78
2023/09/11 03:43:47;;;;;;;;;;;;;;;21.10;27.90;98235.69;4988403;28;1145;-79
2023/09/11 03:46:13;;;;;;;;;;;;;;;21.23;27.89;98236.63;5002329;28;1276;-79
2023/09/11 03:48:41;;;;;;;;;;;;;;;21.07;28.13;98239.38;4978595;28;1183;-79
2023/09/11 03:51:07;;;;;;;;;;;;;;;20.93;28.50;98242.50;4994986;28;1272;-79
2023/09/11 03:53:33;;;;;;;;;;;;;;;21.04;28.52;98245.94;4994185;28;1394;-79
2023/09/11 03:55:59;;;;;;;;;;;;;;;21.19;28.68;98246.41;4964354;28;1648;-79
2023/09/11 03:58:25;;;;;;;;;;;;;;;20.99;29.29;98252.09;5030697;28;1899;-79
2023/09/11 04:00:51;;;;;;;;;;;;;;;21.15;29.26;98249.34;4995281;28;1187;-79
2023/09/11 04:03:17;;;;;;;;;;;;;;;21.06;29.22;98252.75;4978780;28;1129;-78
2023/09/11 04:05:42;;;;;;;;;;;;;;;21.13;29.52;98251.78;4962765;28;1258;-79
2023/09/11 04:08:08;;;;;;;;;;;;;;;20.99;29.50;98252.09;5014245;28;1137;-78
2023/09/11 04:10:34;;;;;;;;;;;;;;;21.10;29.59;98258.34;4997860;28;1136;-79
2023/09/11 04:12:59;;;;;;;;;;;;;;;20.96;30.07;98258.63;5014351;28;903;-79
2023/09/11 04:15:25;;;;;;;;;;;;;;;21.03;29.87;98258.47;5014003;28;867;-79
2023/09/11 04:17:54;;;;;;;;;;;;;;;21.12;29.92;98255.06;4997244;28;1946;-80
2023/09/11 04:20:20;;;;;;;;;;;;;;;21.21;29.73;98264.56;4997297;28;910;-78
2023/09/11 04:22:46;;;;;;;;;;;;;;;21.00;29.86;98260.16;4997543;28;848;-79
2023/09/11 04:25:12;;;;;;;;;;;;;;;21.01;30.27;98258.09;4978156;28;1087;-79
2023/09/11 04:27:37;;;;;;;;;;;;;;;21.13;30.11;98259.47;4962221;28;1257;-78
2023/09/11 04:30:04;;;;;;;;;;;;;;;20.98;30.33;98253.31;4977745;28;1216;-79
2023/09/11 04:32:30;;;;;;;;;;;;;;;20.98;30.21;98250.47;4979623;28;1113;-79
2023/09/11 04:34:56;;;;;;;;;;;;;;;21.16;29.86;98256.59;4984425;28;1303;-79
2023/09/11 04:37:21;;;;;;;;;;;;;;;21.31;29.87;98252.25;4967723;28;1898;-79
2023/09/11 04:39:47;;;;;;;;;;;;;;;21.26;30.16;98255.56;4984132;28;1236;-79
2023/09/11 04:42:12;;;;;;;;;;;;;;;21.36;29.96;98252.97;5000181;28;783;-78
2023/09/11 04:44:38;;;;;;;;;;;;;;;21.48;29.52;98244.59;4986061;28;1205;-78
2023/09/11 04:47:04;;;;;;;;;;;;;;;21.39;30.12;98254.91;4988045;28;1077;-78
2023/09/11 04:49:29;;;;;;;;;;;;;;;21.32;30.26;98256.69;5014544;28;1342;-79
2023/09/11 04:51:55;;;;;;;;;;;;;;;21.14;30.37;98263.91;5023729;28;1084;-78
2023/09/11 04:54:20;;;;;;;;;;;;;;;21.05;30.86;98267.34;5023505;28;1142;-79
2023/09/11 04:56:46;;;;;;;;;;;;;;;21.33;30.26;98261.09;5035801;28;1910;-79
2023/09/11 04:59:12;;;;;;;;;;;;;;;21.29;30.20;98251.84;5057912;28;1184;-79
2023/09/11 05:01:37;;;;;;;;;;;;;;;21.45;30.16;98256.00;5041302;28;845;-78
2023/09/11 05:04:03;;;;;;;;;;;;;;;21.41;30.11;98266.63;5057650;28;1227;-78
2023/09/11 05:06:28;;;;;;;;;;;;;;;21.41;30.18;98266.63;5039876;28;1481;-79
2023/09/11 05:08:55;;;;;;;;;;;;;;;21.39;30.31;98264.22;5057559;28;1239;-79
2023/09/11 05:11:21;;;;;;;;;;;;;;;21.44;30.12;98263.69;5040978;28;1258;-79
2023/09/11 05:13:46;;;;;;;;;;;;;;;21.30;30.75;98266.84;5057126;28;1350;-79
2023/09/11 05:16:12;;;;;;;;;;;;;;;21.25;30.69;98265.28;5057489;28;1150;-79
2023/09/11 05:18:38;;;;;;;;;;;;;;;21.47;30.47;98253.53;5057519;28;1987;-79
2023/09/11 05:21:04;;;;;;;;;;;;;;;21.57;30.25;98261.00;5058525;28;862;-81
2023/09/11 05:23:29;;;;;;;;;;;;;;;21.54;30.08;98256.19;5039438;28;1056;-77
2023/09/11 05:25:55;;;;;;;;;;;;;;;21.44;30.46;98255.19;5039766;28;1220;-77
2023/09/11 05:28:20;;;;;;;;;;;;;;;21.37;30.44;98263.06;5039478;28;995;-77
2023/09/11 05:30:46;;;;;;;;;;;;;;;21.39;30.44;98260.59;5056771;28;873;-77
2023/09/11 05:33:11;;;;;;;;;;;;;;;21.45;30.62;98250.34;5055870;28;1003;-77
2023/09/11 05:35:38;;;;;;;;;;;;;;;21.31;30.74;98255.09;5039723;28;1085;-77
2023/09/11 05:38:03;;;;;;;;;;;;;;;21.52;30.75;98255.84;5039538;28;1926;-77
2023/09/11 05:40:29;;;;;;;;;;;;;;;21.44;30.66;98260.84;5039111;28;1222;-77
2023/09/11 05:42:54;;;;;;;;;;;;;;;21.61;30.73;98252.44;5055834;28;1037;-77
2023/09/11 05:45:20;;;;;;;;;;;;;;;21.49;30.86;98262.38;5039161;28;1417;-77
2023/09/11 05:47:45;;;;;;;;;;;;;;;21.52;30.75;98261.50;5055906;28;870;-77
2023/09/11 05:50:11;;;;;;;;;;;;;;;21.45;31.09;98268.13;5039030;28;1312;-77
2023/09/11 05:52:37;;;;;;;;;;;;;;;21.69;30.67;98276.50;5039124;28;1340;-77
2023/09/11 05:55:02;;;;;;;;;;;;;;;21.58;30.92;98268.25;5033910;28;954;-77
2023/09/11 05:57:28;;;;;;;;;;;;;;;21.71;30.45;98269.19;5039920;28;1910;-77
2023/09/11 05:59:53;;;;;;;;;;;;;;;21.64;30.73;98271.38;5039883;28;945;-77
2023/09/11 06:02:19;;;;;;;;;;;;;;;21.32;31.32;98278.53;5039023;28;1051;-77
2023/09/11 06:04:45;;;;;;;;;;;;;;;21.44;31.18;98272.19;5022199;28;940;-77
2023/09/11 06:07:11;;;;;;;;;;;;;;;21.70;30.56;98278.88;5055339;28;985;-77
2023/09/11 06:09:37;;;;;;;;;;;;;;;21.57;31.03;98280.81;5038790;28;1194;-77
2023/09/11 06:12:03;;;;;;;;;;;;;;;21.71;30.96;98283.34;5039038;28;1192;-77
2023/09/11 06:14:28;;;;;;;;;;;;;;;21.68;30.88;98275.72;5055622;28;862;-77
2023/09/11 06:16:53;;;;;;;;;;;;;;;21.70;30.78;98284.56;5038480;28;1894;-77
2023/09/11 06:19:19;;;;;;;;;;;;;;;21.89;30.55;98284.97;5022072;28;1073;-77
2023/09/11 06:21:45;;;;;;;;;;;;;;;21.75;30.84;98286.88;5038431;28;961;-77
2023/09/11 06:24:11;;;;;;;;;;;;;;;21.47;31.21;98287.50;5038466;28;876;-77
2023/09/11 06:26:36;;;;;;;;;;;;;;;21.52;31.20;98278.50;5038036;28;944;-78
2023/09/11 06:29:02;;;;;;;;;;;;;;;21.56;31.13;98279.22;4999253;28;1147;-77
2023/09/11 06:31:28;;;;;;;;;;;;;;;21.84;30.53;98284.22;4999048;28;1042;-77
2023/09/11 06:33:53;;;;;;;;;;;;;;;21.85;30.45;98285.81;4998756;28;863;-78
2023/09/11 06:36:19;;;;;;;;;;;;;;;21.78;30.90;98285.22;4999152;28;926;-77
2023/09/11 06:38:44;;;;;;;;;;;;;;;21.88;30.93;98291.88;4998586;28;1974;-77
2023/09/11 06:41:10;;;;;;;;;;;;;;;21.79;30.84;98287.59;4998676;28;976;-77
2023/09/11 06:43:37;;;;;;;;;;;;;;;21.84;30.94;98289.91;4998515;28;991;-77
2023/09/11 06:46:03;;;;;;;;;;;;;;;21.88;30.87;98289.03;5015580;28;918;-77
2023/09/11 06:48:28;;;;;;;;;;;;;;;21.91;30.80;98296.63;4998802;28;1736;-77
2023/09/11 06:50:54;;;;;;;;;;;;;;;22.13;30.40;98282.81;4998894;28;1120;-77
2023/09/11 06:53:20;;;;;;;;;;;;;;;21.88;30.67;98294.69;4999048;28;948;-77
2023/09/11 06:55:48;;;;;;;;;;;;;;;21.66;31.14;98300.84;5015043;28;1104;-77
2023/09/11 06:58:14;;;;;;;;;;;;;;;21.74;31.09;98302.28;4998749;28;1985;-77
2023/09/11 07:00:39;;;;;;;;;;;;;;;21.78;31.14;98303.00;4998706;28;947;-77
2023/09/11 07:03:05;;;;;;;;;;;;;;;21.73;30.73;98312.00;5014978;28;1320;-78
2023/09/11 07:05:31;;;;;;;;;;;;;;;21.90;30.64;98307.16;5019677;28;919;-77
2023/09/11 07:07:56;;;;;;;;;;;;;;;21.76;30.87;98305.47;5054674;28;1118;-77
2023/09/11 07:10:22;;;;;;;;;;;;;;;22.02;30.52;98319.84;5037525;28;1096;-77
2023/09/11 07:12:49;;;;;;;;;;;;;;;22.05;30.35;98316.16;5021266;28;1183;-77
2023/09/11 07:15:14;;;;;;;;;;;;;;;21.78;31.04;98314.31;5037922;28;1139;-77
2023/09/11 07:17:40;;;;;;;;;;;;;;;21.94;30.70;98310.72;5017618;28;1906;-77
2023/09/11 07:20:06;;;;;;;;;;;;;;;21.72;31.03;98309.63;4998272;28;1251;-77
2023/09/11 07:22:32;;;;;;;;;;;;;;;22.01;30.63;98315.44;5014638;28;979;-77
2023/09/11 07:24:57;;;;;;;;;;;;;;;22.09;30.44;98309.16;5014611;28;922;-78
2023/09/11 07:27:24;;;;;;;;;;;;;;;21.90;30.58;98315.66;5014410;28;1159;-77
2023/09/11 07:29:49;;;;;;;;;;;;;;;21.76;30.88;98316.81;4998715;28;1309;-77
2023/09/11 07:32:15;;;;;;;;;;;;;;;21.89;30.82;98302.75;5002039;28;965;-78
2023/09/11 07:34:40;;;;;;;;;;;;;;;21.60;31.00;98308.25;5018362;28;1051;-77
2023/09/11 07:37:06;;;;;;;;;;;;;;;21.75;31.09;98303.84;5002013;28;1981;-77
2023/09/11 07:39:31;;;;;;;;;;;;;;;21.76;31.00;98316.81;5033368;28;1021;-77
2023/09/11 07:41:58;;;;;;;;;;;;;;;21.77;30.94;98315.56;5038100;28;887;-77
2023/09/11 07:44:23;;;;;;;;;;;;;;;21.62;31.00;98317.13;5021391;28;1084;-77
2023/09/11 07:46:49;;;;;;;;;;;;;;;21.86;30.79;98317.78;5021563;28;1240;-77
2023/09/11 07:49:14;;;;;;;;;;;;;;;21.78;30.81;98300.16;5052455;28;999;-77
2023/09/11 07:51:40;;;;;;;;;;;;;;;21.75;30.92;98315.19;5053547;28;972;-77
2023/09/11 07:54:05;;;;;;;;;;;;;;;21.68;30.87;98317.41;5040788;28;1086;-78
2023/09/11 07:56:31;;;;;;;;;;;;;;;22.02;30.47;98317.00;5057235;28;861;-77
2023/09/11 07:58:56;;;;;;;;;;;;;;;21.92;30.74;98312.41;5016676;28;1910;-78
2023/09/11 08:01:22;;;;;;;;;;;;;;;22.09;30.22;98308.38;5001236;28;1189;-78
2023/09/11 08:03:47;;;;;;;;;;;;;;;22.05;30.26;98305.59;5000279;28;947;-79
2023/09/11 08:06:13;;;;;;;;;;;;;;;21.89;30.66;98318.94;5017461;28;908;-79
2023/09/11 08:08:39;;;;;;;;;;;;;;;21.71;30.97;98308.84;5017536;28;1164;-79
2023/09/11 08:11:15;;;;;;;;;;;;;;;21.73;30.85;98314.84;5017531;28;1202;-79
2023/09/11 08:13:40;;;;;;;;;;;;;;;21.64;31.31;98313.84;5017137;28;1221;-79
2023/09/11 08:16:06;;;;;;;;;;;;;;;21.75;31.04;98309.53;5017042;28;1004;-79
2023/09/11 08:18:31;;;;;;;;;;;;;;;21.76;30.73;98311.16;5016952;28;1979;-79
2023/09/11 08:20:57;;;;;;;;;;;;;;;21.60;31.25;98308.25;5017354;28;1348;-79
2023/09/11 08:23:22;;;;;;;;;;;;;;;21.90;30.58;98300.72;5016966;28;940;-79
2023/09/11 08:25:48;;;;;;;;;;;;;;;21.91;30.63;98310.81;5017363;28;836;-79
2023/09/11 08:28:13;;;;;;;;;;;;;;;21.79;30.94;98290.41;5017112;28;866;-79
2023/09/11 08:30:39;;;;;;;;;;;;;;;21.84;30.63;98291.94;5048541;28;1345;-78
2023/09/11 08:33:04;;;;;;;;;;;;;;;21.88;30.43;98289.03;5039918;28;1233;-79
2023/09/11 08:35:30;;;;;;;;;;;;;;;21.89;30.12;98296.28;5057202;28;949;-79
2023/09/11 08:37:56;;;;;;;;;;;;;;;22.01;29.94;98287.88;5070176;28;1902;-79
2023/09/11 08:40:22;;;;;;;;;;;;;;;21.64;30.42;98285.53;5057760;28;877;-78
2023/09/11 08:42:48;;;;;;;;;;;;;;;21.70;30.31;98290.22;5039934;28;835;-79
2023/09/11 08:45:13;;;;;;;;;;;;;;;21.79;30.42;98287.59;5058288;28;1105;-79
2023/09/11 08:47:38;;;;;;;;;;;;;;;21.79;30.25;98281.13;5041297;28;1210;-79
2023/09/11 08:50:04;;;;;;;;;;;;;;;21.67;30.42;98287.50;5058807;28;1048;-79
2023/09/11 08:52:30;;;;;;;;;;;;;;;21.95;29.97;98274.69;5041190;28;1227;-79
2023/09/11 08:54:56;;;;;;;;;;;;;;;21.91;30.12;98276.81;5057853;28;891;-79
2023/09/11 08:57:22;;;;;;;;;;;;;;;21.71;30.06;98274.84;5041016;28;1902;-79
2023/09/11 08:59:49;;;;;;;;;;;;;;;21.87;30.09;98276.13;5057398;28;863;-79
2023/09/11 09:02:15;;;;;;;;;;;;;;;21.68;30.05;98280.56;5040723;28;835;-79
2023/09/11 09:04:40;;;;;;;;;;;;;;;21.63;30.36;98267.72;5057199;28;884;-79
2023/09/11 09:07:06;;;;;;;;;;;;;;;21.96;29.67;98262.91;5040981;28;1149;-79
2023/09/11 09:09:31;;;;;;;;;;;;;;;21.71;30.19;98260.69;5057246;28;883;-78
2023/09/11 09:11:57;;;;;;;;;;;;;;;21.77;30.13;98261.75;5040614;28;1250;-79
2023/09/11 09:14:22;;;;;;;;;;;;;;;21.77;30.16;98256.09;5056852;28;909;-79
2023/09/11 09:16:48;;;;;;;;;;;;;;;21.61;30.30;98261.72;5057053;28;1999;-78
2023/09/11 09:19:13;;;;;;;;;;;;;;;21.56;30.13;98257.38;5040693;28;931;-78
2023/09/11 09:21:57;;;;;;;;;;;;;;;21.69;30.25;98251.81;5037313;28;1106;-79
2023/09/11 09:24:23;;;;;;;;;;;;;;;21.87;30.00;98253.44;5057131;28;1477;-79
2023/09/11 09:26:56;;;;;;;;;;;;;;;21.61;30.22;98247.56;5056537;28;756;-79
2023/09/11 09:29:21;;;;;;;;;;;;;;;21.81;30.05;98253.16;5039966;28;1462;-79
2023/09/11 09:31:47;;;;;;;;;;;;;;;21.75;30.11;98252.88;5056200;28;810;-79
2023/09/11 09:34:13;;;;;;;;;;;;;;;21.75;29.89;98252.88;5056087;28;1150;-79
2023/09/11 09:36:48;;;;;;;;;;;;;;;21.80;30.07;98246.69;5034599;28;1898;-79
2023/09/11 09:39:14;;;;;;;;;;;;;;;21.82;30.13;98240.59;5019172;28;805;-79
2023/09/11 09:41:39;;;;;;;;;;;;;;;21.93;29.77;98234.69;5019271;28;1191;-79
2023/09/11 09:44:05;;;;;;;;;;;;;;;21.65;30.26;98231.28;5002194;28;1248;-79
2023/09/11 09:46:30;;;;;;;;;;;;;;;21.88;29.72;98223.88;5034992;28;905;-79
2023/09/11 09:48:56;;;;;;;;;;;;;;;21.77;29.85;98232.63;5034774;28;1189;-79
2023/09/11 09:51:21;;;;;;;;;;;;;;;21.57;30.37;98218.53;5021646;28;1151;-79
2023/09/11 09:53:47;;;;;;;;;;;;;;;21.51;30.24;98223.13;5027342;28;1443;-79
2023/09/11 09:56:12;;;;;;;;;;;;;;;21.73;29.91;98227.03;5029082;28;1178;-79
2023/09/11 09:58:41;;;;;;;;;;;;;;;21.66;29.83;98221.56;5014256;28;1939;-79
2023/09/11 10:01:07;;;;;;;;;;;;;;;21.76;30.19;98219.69;5039001;28;914;-79
2023/09/11 10:03:39;;;;;;;;;;;;;;;21.74;30.07;98227.84;5055207;28;1058;-79
2023/09/11 10:06:14;;;;;;;;;;;;;;;21.65;30.08;98219.94;5021914;28;1501;-79
2023/09/11 10:08:40;;;;;;;;;;;;;;;21.73;30.10;98223.41;5049962;28;934;-79
2023/09/11 10:11:06;;;;;;;;;;;;;;;21.83;30.00;98220.31;5020041;28;1243;-78
2023/09/11 10:13:32;;;;;;;;;;;;;;;21.39;29.84;98141.69;5037115;28;905;-79
2023/09/11 10:15:57;;;;;;;;;;;;;;;21.67;30.30;98223.16;5050485;28;1474;-79
2023/09/11 10:18:23;;;;;;;;;;;;;;;21.53;30.66;98217.81;5055994;28;1989;-79
2023/09/11 10:20:49;;;;;;;;;;;;;;;21.71;30.17;98221.03;5039513;28;1168;-78
2023/09/11 10:23:14;;;;;;;;;;;;;;;21.76;30.03;98214.03;5031394;28;1295;-78
2023/09/11 10:25:42;;;;;;;;;;;;;;;21.64;30.26;98207.03;5009446;28;1325;-79
2023/09/11 10:28:08;;;;;;;;;;;;;;;22.02;29.50;98215.00;4984825;28;1125;-79
2023/09/11 10:30:42;;;;;;;;;;;;;;;21.66;30.21;98204.56;5015328;28;1025;-79
2023/09/11 10:33:12;;;;;;;;;;;;;;;21.78;30.16;98206.69;4943744;28;1685;-79
2023/09/11 10:35:39;;;;;;;;;;;;;;;21.87;30.09;98208.91;4921409;29;964;-79
2023/09/11 10:38:05;;;;;;;;;;;;;;;21.63;30.39;98205.44;4937366;29;1973;-78
2023/09/11 10:40:31;;;;;;;;;;;;;;;21.71;30.26;98206.06;4937539;29;971;-78
2023/09/11 10:42:57;;;;;;;;;;;;;;;21.91;29.78;98203.16;4937393;29;968;-79
2023/09/11 10:45:28;;;;;;;;;;;;;;;21.90;29.95;98198.72;4919278;29;1327;-78
2023/09/11 10:47:54;;;;;;;;;;;;;;;21.83;30.08;98203.34;4910416;29;1219;-78
2023/09/11 10:50:22;;;;;;;;;;;;;;;21.91;29.84;98203.16;4902672;29;1224;-78
2023/09/11 10:52:47;;;;;;;;;;;;;;;21.90;29.88;98195.91;4902426;29;1257;-78
2023/09/11 10:55:14;;;;;;;;;;;;;;;21.90;29.76;98196.69;4936138;29;874;-78
2023/09/11 10:57:39;;;;;;;;;;;;;;;21.64;30.25;98201.38;4937147;29;1903;-78
2023/09/11 11:00:05;;;;;;;;;;;;;;;21.66;30.25;98193.25;4937212;29;990;-78
2023/09/11 11:02:31;;;;;;;;;;;;;;;21.92;29.74;98194.22;4937315;29;1194;-78
2023/09/11 11:04:56;;;;;;;;;;;;;;;22.06;29.58;98196.69;4969132;28;979;-78
2023/09/11 11:07:23;;;;;;;;;;;;;;;21.62;30.35;98189.69;5007650;28;933;-78
2023/09/11 11:09:51;;;;;;;;;;;;;;;21.34;30.65;98193.97;4997994;28;1001;-78
2023/09/11 11:12:29;;;;;;;;;;;;;;;21.81;30.19;98182.34;4998927;28;1119;-78
2023/09/11 11:15:13;;;;;;;;;;;;;;;21.94;29.74;98188.09;4998173;28;853;-78
2023/09/11 11:17:40;;;;;;;;;;;;;;;21.81;29.98;98182.34;5051830;28;2040;-78
2023/09/11 11:20:07;;;;;;;;;;;;;;;21.75;30.20;98181.28;5018062;28;979;-78
2023/09/11 11:22:33;;;;;;;;;;;;;;;21.69;30.47;98191.53;5017891;28;1004;-78
2023/09/11 11:24:59;;;;;;;;;;;;;;;21.47;30.76;98183.56;5017967;28;945;-78
2023/09/11 11:27:25;;;;;;;;;;;;;;;21.59;30.41;98187.72;4978571;28;1132;-78
2023/09/11 11:29:51;;;;;;;;;;;;;;;21.80;29.98;98170.22;4979005;28;1003;-78
2023/09/11 11:32:17;;;;;;;;;;;;;;;21.67;29.94;98189.16;4978857;28;969;-78
2023/09/11 11:34:42;;;;;;;;;;;;;;;21.60;30.15;98189.31;4978765;28;794;-79
2023/09/11 11:37:09;;;;;;;;;;;;;;;21.94;29.78;98191.72;4978444;28;1911;-78
2023/09/11 11:39:36;;;;;;;;;;;;;;;21.71;30.17;98189.06;4994469;28;967;-78
2023/09/11 11:42:02;;;;;;;;;;;;;;;21.70;30.02;98176.94;4979169;28;1194;-78
2023/09/11 11:44:30;;;;;;;;;;;;;;;21.58;30.51;98169.94;4978403;28;903;-78
2023/09/11 11:46:55;;;;;;;;;;;;;;;21.85;29.73;98172.50;4978903;28;1136;-78
2023/09/11 11:49:21;;;;;;;;;;;;;;;21.90;29.75;98184.56;4978617;28;894;-78
2023/09/11 11:51:47;;;;;;;;;;;;;;;21.93;29.75;98183.69;4981998;28;1143;-78
2023/09/11 11:54:22;;;;;;;;;;;;;;;21.59;30.29;98176.41;4998060;28;1012;-79
2023/09/11 11:56:48;;;;;;;;;;;;;;;21.73;30.25;98176.06;4997680;28;1976;-78
2023/09/11 11:59:13;;;;;;;;;;;;;;;21.71;30.18;98172.88;5028556;28;876;-78
2023/09/11 12:01:42;;;;;;;;;;;;;;;21.84;29.85;98170.94;5035209;28;1388;-78
2023/09/11 12:04:08;;;;;;;;;;;;;;;21.77;30.20;98176.78;5049025;28;1209;-78
2023/09/11 12:06:33;;;;;;;;;;;;;;;21.71;30.50;98167.22;5036565;28;1455;-78
2023/09/11 12:08:59;;;;;;;;;;;;;;;21.74;30.41;98171.19;5020236;28;1084;-78
2023/09/11 12:11:24;;;;;;;;;;;;;;;22.02;29.66;98164.00;5016580;28;1261;-78
2023/09/11 12:13:50;;;;;;;;;;;;;;;21.72;30.29;98163.16;5033259;28;1053;-78
2023/09/11 12:16:15;;;;;;;;;;;;;;;22.03;29.66;98154.28;5001269;28;914;-78
2023/09/11 12:18:41;;;;;;;;;;;;;;;21.93;29.95;98149.69;5020180;28;1960;-78
2023/09/11 12:21:06;;;;;;;;;;;;;;;21.67;30.21;98148.72;5036692;28;858;-78
2023/09/11 12:23:32;;;;;;;;;;;;;;;21.58;30.10;98152.94;5020580;28;883;-78
2023/09/11 12:25:58;;;;;;;;;;;;;;;21.49;30.38;98149.94;5020233;28;993;-78
2023/09/11 12:28:24;;;;;;;;;;;;;;;21.58;30.44;98146.50;5020055;28;1032;-78
2023/09/11 12:30:50;;;;;;;;;;;;;;;21.95;29.76;98147.19;5020402;28;715;-78
2023/09/11 12:33:16;;;;;;;;;;;;;;;21.89;29.74;98149.78;5000460;28;1099;-78
2023/09/11 12:35:44;;;;;;;;;;;;;;;21.92;29.82;98153.78;5016751;28;1139;-78
2023/09/11 12:38:10;;;;;;;;;;;;;;;21.57;30.16;98147.75;4977558;28;1910;-78
2023/09/11 12:40:40;;;;;;;;;;;;;;;21.72;30.01;98156.69;4977930;28;1052;-78
2023/09/11 12:43:06;;;;;;;;;;;;;;;21.88;29.69;98147.41;4977933;28;1013;-78
2023/09/11 12:45:32;;;;;;;;;;;;;;;22.00;29.64;98160.84;4977583;28;1048;-78
2023/09/11 12:47:57;;;;;;;;;;;;;;;21.81;29.88;98152.00;4963333;28;1293;-78
2023/09/11 12:50:23;;;;;;;;;;;;;;;21.76;29.90;98154.53;4997229;28;931;-79
2023/09/11 12:52:48;;;;;;;;;;;;;;;21.76;30.00;98152.53;4996822;28;906;-78
2023/09/11 12:55:14;;;;;;;;;;;;;;;21.94;29.92;98154.09;4997304;28;956;-78